sensor_id;sensor_type;location;lat;lon;timestamp;P1;durP1;ratioP1;P2;durP2;ratioP2
37453;SDS011;23315;52.078;4.756;2023-08-06T00:01:42;11.80;;;9.55;;
37453;SDS011;23315;52.078;4.756;2023-08-06T00:04:08;12.93;;;10.27;;
37453;SDS011;23315;52.078;4.756;2023-08-06T00:06:33;11.68;;;9.65;;
37453;SDS011;23315;52.078;4.756;2023-08-06T00:08:58;12.55;;;8.85;;
37453;SDS011;23315;52.078;4.756;2023-08-06T00:11:24;14.38;;;11.98;;
37453;SDS011;23315;52.078;4.756;2023-08-06T00:13:49;14.05;;;9.48;;
37453;SDS011;23315;52.078;4.756;2023-08-06T00:16:15;13.70;;;10.20;;
37453;SDS011;23315;52.078;4.756;2023-08-06T00:18:40;14.75;;;8.77;;
37453;SDS011;23315;52.078;4.756;2023-08-06T00:21:06;18.05;;;12.65;;
37453;SDS011;23315;52.078;4.756;2023-08-06T00:23:32;13.48;;;10.35;;
37453;SDS011;23315;52.078;4.756;2023-08-06T00:25:57;14.93;;;10.50;;
37453;SDS011;23315;52.078;4.756;2023-08-06T00:28:22;15.60;;;11.90;;
37453;SDS011;23315;52.078;4.756;2023-08-06T00:30:54;23.42;;;14.55;;
37453;SDS011;23315;52.078;4.756;2023-08-06T00:33:20;14.63;;;12.05;;
37453;SDS011;23315;52.078;4.756;2023-08-06T00:35:46;22.58;;;14.20;;
37453;SDS011;23315;52.078;4.756;2023-08-06T00:38:12;14.48;;;12.00;;
37453;SDS011;23315;52.078;4.756;2023-08-06T00:40:37;13.52;;;11.43;;
37453;SDS011;23315;52.078;4.756;2023-08-06T00:43:02;16.35;;;12.77;;
37453;SDS011;23315;52.078;4.756;2023-08-06T00:45:28;20.17;;;14.45;;
37453;SDS011;23315;52.078;4.756;2023-08-06T00:47:54;16.35;;;12.93;;
37453;SDS011;23315;52.078;4.756;2023-08-06T00:50:20;20.20;;;13.85;;
37453;SDS011;23315;52.078;4.756;2023-08-06T00:52:47;22.25;;;14.90;;
37453;SDS011;23315;52.078;4.756;2023-08-06T00:55:13;18.60;;;13.63;;
37453;SDS011;23315;52.078;4.756;2023-08-06T00:57:39;19.42;;;13.70;;
37453;SDS011;23315;52.078;4.756;2023-08-06T01:00:04;17.38;;;13.15;;
37453;SDS011;23315;52.078;4.756;2023-08-06T01:02:30;17.70;;;13.50;;
37453;SDS011;23315;52.078;4.756;2023-08-06T01:04:56;18.25;;;13.13;;
37453;SDS011;23315;52.078;4.756;2023-08-06T01:12:55;19.13;;;12.02;;
37453;SDS011;23315;52.078;4.756;2023-08-06T01:15:31;19.52;;;13.20;;
37453;SDS011;23315;52.078;4.756;2023-08-06T01:17:59;18.85;;;14.10;;
37453;SDS011;23315;52.078;4.756;2023-08-06T01:20:31;22.60;;;16.33;;
37453;SDS011;23315;52.078;4.756;2023-08-06T01:22:56;18.25;;;14.27;;
37453;SDS011;23315;52.078;4.756;2023-08-06T01:25:21;17.90;;;14.73;;
37453;SDS011;23315;52.078;4.756;2023-08-06T01:28:48;19.77;;;14.10;;
37453;SDS011;23315;52.078;4.756;2023-08-06T01:30:57;15.80;;;12.75;;
37453;SDS011;23315;52.078;4.756;2023-08-06T01:33:25;18.23;;;13.00;;
37453;SDS011;23315;52.078;4.756;2023-08-06T01:35:52;22.85;;;13.80;;
37453;SDS011;23315;52.078;4.756;2023-08-06T01:38:19;13.20;;;10.45;;
37453;SDS011;23315;52.078;4.756;2023-08-06T01:40:45;12.75;;;10.10;;
37453;SDS011;23315;52.078;4.756;2023-08-06T01:43:10;11.30;;;9.75;;
37453;SDS011;23315;52.078;4.756;2023-08-06T01:45:36;13.32;;;8.77;;
37453;SDS011;23315;52.078;4.756;2023-08-06T01:48:01;12.32;;;8.48;;
37453;SDS011;23315;52.078;4.756;2023-08-06T01:50:26;11.10;;;7.63;;
37453;SDS011;23315;52.078;4.756;2023-08-06T01:52:52;11.93;;;6.90;;
37453;SDS011;23315;52.078;4.756;2023-08-06T01:55:17;9.40;;;7.22;;
37453;SDS011;23315;52.078;4.756;2023-08-06T01:57:43;11.50;;;7.18;;
37453;SDS011;23315;52.078;4.756;2023-08-06T02:00:09;9.60;;;6.13;;
37453;SDS011;23315;52.078;4.756;2023-08-06T02:02:34;7.72;;;5.80;;
37453;SDS011;23315;52.078;4.756;2023-08-06T02:05:00;8.35;;;5.03;;
37453;SDS011;23315;52.078;4.756;2023-08-06T02:07:25;6.25;;;4.50;;
37453;SDS011;23315;52.078;4.756;2023-08-06T02:09:51;7.90;;;4.45;;
37453;SDS011;23315;52.078;4.756;2023-08-06T02:12:16;6.35;;;4.97;;
37453;SDS011;23315;52.078;4.756;2023-08-06T02:14:41;8.82;;;5.28;;
37453;SDS011;23315;52.078;4.756;2023-08-06T02:17:07;5.63;;;4.47;;
37453;SDS011;23315;52.078;4.756;2023-08-06T02:19:33;5.47;;;3.85;;
37453;SDS011;23315;52.078;4.756;2023-08-06T02:21:58;6.82;;;3.67;;
37453;SDS011;23315;52.078;4.756;2023-08-06T02:24:24;7.45;;;3.67;;
37453;SDS011;23315;52.078;4.756;2023-08-06T02:26:49;7.00;;;4.30;;
37453;SDS011;23315;52.078;4.756;2023-08-06T02:29:16;6.07;;;3.40;;
37453;SDS011;23315;52.078;4.756;2023-08-06T02:31:42;6.63;;;3.67;;
37453;SDS011;23315;52.078;4.756;2023-08-06T02:34:07;6.30;;;3.60;;
37453;SDS011;23315;52.078;4.756;2023-08-06T02:36:33;6.07;;;3.33;;
37453;SDS011;23315;52.078;4.756;2023-08-06T02:38:58;5.57;;;2.70;;
37453;SDS011;23315;52.078;4.756;2023-08-06T02:41:23;4.35;;;2.78;;
37453;SDS011;23315;52.078;4.756;2023-08-06T02:43:49;5.97;;;3.00;;
37453;SDS011;23315;52.078;4.756;2023-08-06T02:46:14;5.25;;;4.10;;
37453;SDS011;23315;52.078;4.756;2023-08-06T02:48:39;9.68;;;4.07;;
37453;SDS011;23315;52.078;4.756;2023-08-06T02:51:05;7.40;;;3.72;;
37453;SDS011;23315;52.078;4.756;2023-08-06T02:53:30;8.88;;;3.63;;
37453;SDS011;23315;52.078;4.756;2023-08-06T02:55:56;6.22;;;4.35;;
37453;SDS011;23315;52.078;4.756;2023-08-06T02:58:22;7.78;;;4.55;;
37453;SDS011;23315;52.078;4.756;2023-08-06T03:03:26;4.65;;;3.38;;
37453;SDS011;23315;52.078;4.756;2023-08-06T03:05:52;4.38;;;2.60;;
37453;SDS011;23315;52.078;4.756;2023-08-06T03:08:18;5.60;;;2.88;;
37453;SDS011;23315;52.078;4.756;2023-08-06T03:10:47;4.32;;;2.97;;
37453;SDS011;23315;52.078;4.756;2023-08-06T03:13:12;5.78;;;3.13;;
37453;SDS011;23315;52.078;4.756;2023-08-06T03:15:38;5.75;;;3.22;;
37453;SDS011;23315;52.078;4.756;2023-08-06T03:18:03;7.28;;;4.18;;
37453;SDS011;23315;52.078;4.756;2023-08-06T03:20:30;6.70;;;3.60;;
37453;SDS011;23315;52.078;4.756;2023-08-06T03:22:57;6.20;;;3.88;;
37453;SDS011;23315;52.078;4.756;2023-08-06T03:25:22;8.00;;;5.47;;
37453;SDS011;23315;52.078;4.756;2023-08-06T03:27:48;8.68;;;7.15;;
37453;SDS011;23315;52.078;4.756;2023-08-06T03:30:13;16.42;;;11.60;;
37453;SDS011;23315;52.078;4.756;2023-08-06T03:32:38;17.20;;;12.48;;
37453;SDS011;23315;52.078;4.756;2023-08-06T03:35:04;18.08;;;11.90;;
37453;SDS011;23315;52.078;4.756;2023-08-06T03:37:30;19.80;;;16.35;;
37453;SDS011;23315;52.078;4.756;2023-08-06T03:39:55;27.98;;;18.95;;
37453;SDS011;23315;52.078;4.756;2023-08-06T03:42:20;29.42;;;20.10;;
37453;SDS011;23315;52.078;4.756;2023-08-06T03:44:46;29.08;;;21.25;;
37453;SDS011;23315;52.078;4.756;2023-08-06T03:47:12;25.98;;;19.67;;
37453;SDS011;23315;52.078;4.756;2023-08-06T03:49:38;27.05;;;20.58;;
37453;SDS011;23315;52.078;4.756;2023-08-06T03:52:03;27.50;;;21.13;;
37453;SDS011;23315;52.078;4.756;2023-08-06T03:54:29;24.50;;;20.08;;
37453;SDS011;23315;52.078;4.756;2023-08-06T03:56:55;24.30;;;19.33;;
37453;SDS011;23315;52.078;4.756;2023-08-06T03:59:20;20.85;;;16.40;;
37453;SDS011;23315;52.078;4.756;2023-08-06T04:01:46;17.80;;;13.98;;
37453;SDS011;23315;52.078;4.756;2023-08-06T04:04:11;14.60;;;11.27;;
37453;SDS011;23315;52.078;4.756;2023-08-06T04:06:36;10.00;;;8.65;;
37453;SDS011;23315;52.078;4.756;2023-08-06T04:09:02;10.27;;;8.70;;
37453;SDS011;23315;52.078;4.756;2023-08-06T04:11:27;9.77;;;8.23;;
37453;SDS011;23315;52.078;4.756;2023-08-06T04:13:53;10.70;;;8.85;;
37453;SDS011;23315;52.078;4.756;2023-08-06T04:16:20;13.10;;;10.07;;
37453;SDS011;23315;52.078;4.756;2023-08-06T04:18:46;13.60;;;11.35;;
37453;SDS011;23315;52.078;4.756;2023-08-06T04:21:11;14.88;;;12.57;;
37453;SDS011;23315;52.078;4.756;2023-08-06T04:23:37;21.30;;;18.45;;
37453;SDS011;23315;52.078;4.756;2023-08-06T04:26:02;25.00;;;18.65;;
37453;SDS011;23315;52.078;4.756;2023-08-06T04:28:28;22.23;;;19.00;;
37453;SDS011;23315;52.078;4.756;2023-08-06T04:30:53;25.73;;;20.95;;
37453;SDS011;23315;52.078;4.756;2023-08-06T04:33:19;30.38;;;24.33;;
37453;SDS011;23315;52.078;4.756;2023-08-06T04:35:45;30.38;;;24.45;;
37453;SDS011;23315;52.078;4.756;2023-08-06T04:38:10;36.13;;;25.63;;
37453;SDS011;23315;52.078;4.756;2023-08-06T04:40:36;37.60;;;28.08;;
37453;SDS011;23315;52.078;4.756;2023-08-06T04:43:01;37.25;;;27.65;;
37453;SDS011;23315;52.078;4.756;2023-08-06T04:45:27;35.47;;;26.38;;
37453;SDS011;23315;52.078;4.756;2023-08-06T04:47:52;34.63;;;26.40;;
37453;SDS011;23315;52.078;4.756;2023-08-06T04:50:19;33.00;;;25.50;;
37453;SDS011;23315;52.078;4.756;2023-08-06T04:52:44;35.92;;;26.35;;
37453;SDS011;23315;52.078;4.756;2023-08-06T04:55:10;29.75;;;24.15;;
37453;SDS011;23315;52.078;4.756;2023-08-06T04:57:35;39.90;;;29.17;;
37453;SDS011;23315;52.078;4.756;2023-08-06T05:00:01;44.35;;;29.10;;
37453;SDS011;23315;52.078;4.756;2023-08-06T05:02:26;36.67;;;27.42;;
37453;SDS011;23315;52.078;4.756;2023-08-06T05:04:51;33.70;;;25.45;;
37453;SDS011;23315;52.078;4.756;2023-08-06T05:07:17;34.03;;;25.55;;
37453;SDS011;23315;52.078;4.756;2023-08-06T05:09:42;34.88;;;25.70;;
37453;SDS011;23315;52.078;4.756;2023-08-06T05:12:08;31.88;;;24.95;;
37453;SDS011;23315;52.078;4.756;2023-08-06T05:14:33;32.75;;;22.80;;
37453;SDS011;23315;52.078;4.756;2023-08-06T05:16:59;29.13;;;22.90;;
37453;SDS011;23315;52.078;4.756;2023-08-06T05:19:24;27.33;;;21.98;;
37453;SDS011;23315;52.078;4.756;2023-08-06T05:21:50;31.15;;;24.30;;
37453;SDS011;23315;52.078;4.756;2023-08-06T05:24:15;28.73;;;21.95;;
37453;SDS011;23315;52.078;4.756;2023-08-06T05:26:40;28.27;;;21.60;;
37453;SDS011;23315;52.078;4.756;2023-08-06T05:29:06;23.63;;;18.30;;
37453;SDS011;23315;52.078;4.756;2023-08-06T05:31:31;28.30;;;20.50;;
37453;SDS011;23315;52.078;4.756;2023-08-06T05:33:57;23.88;;;18.38;;
37453;SDS011;23315;52.078;4.756;2023-08-06T05:36:22;20.67;;;16.45;;
37453;SDS011;23315;52.078;4.756;2023-08-06T05:38:47;16.02;;;13.65;;
37453;SDS011;23315;52.078;4.756;2023-08-06T05:41:13;19.25;;;14.98;;
37453;SDS011;23315;52.078;4.756;2023-08-06T05:43:38;16.38;;;14.00;;
37453;SDS011;23315;52.078;4.756;2023-08-06T05:46:04;18.80;;;14.00;;
37453;SDS011;23315;52.078;4.756;2023-08-06T05:48:29;12.90;;;11.50;;
37453;SDS011;23315;52.078;4.756;2023-08-06T05:50:55;14.57;;;12.27;;
37453;SDS011;23315;52.078;4.756;2023-08-06T05:53:20;14.25;;;11.43;;
37453;SDS011;23315;52.078;4.756;2023-08-06T05:55:46;12.98;;;11.43;;
37453;SDS011;23315;52.078;4.756;2023-08-06T05:58:12;12.05;;;10.05;;
37453;SDS011;23315;52.078;4.756;2023-08-06T06:00:37;15.32;;;11.25;;
37453;SDS011;23315;52.078;4.756;2023-08-06T06:03:03;10.82;;;9.18;;
37453;SDS011;23315;52.078;4.756;2023-08-06T06:05:28;12.20;;;10.88;;
37453;SDS011;23315;52.078;4.756;2023-08-06T06:07:53;12.50;;;10.18;;
37453;SDS011;23315;52.078;4.756;2023-08-06T06:10:19;10.98;;;9.23;;
37453;SDS011;23315;52.078;4.756;2023-08-06T06:12:44;13.95;;;11.25;;
37453;SDS011;23315;52.078;4.756;2023-08-06T06:15:10;12.10;;;9.38;;
37453;SDS011;23315;52.078;4.756;2023-08-06T06:17:35;14.25;;;11.25;;
37453;SDS011;23315;52.078;4.756;2023-08-06T06:20:01;14.55;;;11.57;;
37453;SDS011;23315;52.078;4.756;2023-08-06T06:22:29;13.30;;;11.18;;
37453;SDS011;23315;52.078;4.756;2023-08-06T06:24:54;11.32;;;10.05;;
37453;SDS011;23315;52.078;4.756;2023-08-06T06:27:20;14.45;;;10.82;;
37453;SDS011;23315;52.078;4.756;2023-08-06T06:29:45;10.63;;;9.15;;
37453;SDS011;23315;52.078;4.756;2023-08-06T06:32:10;14.57;;;10.88;;
37453;SDS011;23315;52.078;4.756;2023-08-06T06:34:36;10.45;;;8.98;;
37453;SDS011;23315;52.078;4.756;2023-08-06T06:37:01;11.82;;;10.20;;
37453;SDS011;23315;52.078;4.756;2023-08-06T06:39:27;11.35;;;8.35;;
37453;SDS011;23315;52.078;4.756;2023-08-06T06:41:52;11.45;;;10.23;;
37453;SDS011;23315;52.078;4.756;2023-08-06T06:44:17;18.75;;;12.27;;
37453;SDS011;23315;52.078;4.756;2023-08-06T06:46:45;16.40;;;11.15;;
37453;SDS011;23315;52.078;4.756;2023-08-06T06:49:10;11.50;;;9.68;;
37453;SDS011;23315;52.078;4.756;2023-08-06T06:51:36;11.55;;;10.35;;
37453;SDS011;23315;52.078;4.756;2023-08-06T06:54:01;12.65;;;10.63;;
37453;SDS011;23315;52.078;4.756;2023-08-06T06:56:26;11.02;;;8.35;;
37453;SDS011;23315;52.078;4.756;2023-08-06T06:58:52;12.48;;;10.63;;
37453;SDS011;23315;52.078;4.756;2023-08-06T07:01:17;14.00;;;10.82;;
37453;SDS011;23315;52.078;4.756;2023-08-06T07:03:42;11.38;;;9.48;;
37453;SDS011;23315;52.078;4.756;2023-08-06T07:06:08;14.77;;;11.27;;
37453;SDS011;23315;52.078;4.756;2023-08-06T07:08:33;11.90;;;10.00;;
37453;SDS011;23315;52.078;4.756;2023-08-06T07:10:59;15.15;;;9.65;;
37453;SDS011;23315;52.078;4.756;2023-08-06T07:13:29;11.48;;;9.32;;
37453;SDS011;23315;52.078;4.756;2023-08-06T07:15:55;15.48;;;10.82;;
37453;SDS011;23315;52.078;4.756;2023-08-06T07:18:21;10.95;;;8.75;;
37453;SDS011;23315;52.078;4.756;2023-08-06T07:20:53;9.57;;;7.78;;
37453;SDS011;23315;52.078;4.756;2023-08-06T07:23:22;12.57;;;9.07;;
37453;SDS011;23315;52.078;4.756;2023-08-06T07:25:49;11.27;;;9.40;;
37453;SDS011;23315;52.078;4.756;2023-08-06T07:28:15;13.98;;;10.40;;
37453;SDS011;23315;52.078;4.756;2023-08-06T07:30:41;10.82;;;8.75;;
37453;SDS011;23315;52.078;4.756;2023-08-06T07:33:07;18.10;;;9.73;;
37453;SDS011;23315;52.078;4.756;2023-08-06T07:35:32;14.90;;;10.77;;
37453;SDS011;23315;52.078;4.756;2023-08-06T07:37:58;11.60;;;7.63;;
37453;SDS011;23315;52.078;4.756;2023-08-06T07:40:24;8.82;;;5.75;;
37453;SDS011;23315;52.078;4.756;2023-08-06T07:42:49;11.50;;;6.18;;
37453;SDS011;23315;52.078;4.756;2023-08-06T07:45:14;10.98;;;6.35;;
37453;SDS011;23315;52.078;4.756;2023-08-06T07:47:40;14.90;;;6.43;;
37453;SDS011;23315;52.078;4.756;2023-08-06T07:50:05;9.13;;;5.53;;
37453;SDS011;23315;52.078;4.756;2023-08-06T07:52:31;16.75;;;7.80;;
37453;SDS011;23315;52.078;4.756;2023-08-06T07:54:56;10.15;;;5.80;;
37453;SDS011;23315;52.078;4.756;2023-08-06T07:57:22;9.93;;;5.82;;
37453;SDS011;23315;52.078;4.756;2023-08-06T07:59:47;27.70;;;6.88;;
37453;SDS011;23315;52.078;4.756;2023-08-06T08:02:13;13.18;;;6.95;;
37453;SDS011;23315;52.078;4.756;2023-08-06T08:04:38;10.60;;;6.95;;
37453;SDS011;23315;52.078;4.756;2023-08-06T08:07:03;16.15;;;7.97;;
37453;SDS011;23315;52.078;4.756;2023-08-06T08:09:29;12.15;;;7.30;;
37453;SDS011;23315;52.078;4.756;2023-08-06T08:11:55;10.55;;;6.57;;
37453;SDS011;23315;52.078;4.756;2023-08-06T08:14:20;14.73;;;6.93;;
37453;SDS011;23315;52.078;4.756;2023-08-06T08:16:45;12.32;;;5.95;;
37453;SDS011;23315;52.078;4.756;2023-08-06T08:19:11;9.00;;;5.68;;
37453;SDS011;23315;52.078;4.756;2023-08-06T08:21:36;12.30;;;6.75;;
37453;SDS011;23315;52.078;4.756;2023-08-06T08:24:03;11.18;;;4.88;;
37453;SDS011;23315;52.078;4.756;2023-08-06T08:26:29;10.65;;;5.80;;
37453;SDS011;23315;52.078;4.756;2023-08-06T08:28:54;10.32;;;4.93;;
37453;SDS011;23315;52.078;4.756;2023-08-06T08:31:19;11.68;;;5.30;;
37453;SDS011;23315;52.078;4.756;2023-08-06T08:33:45;13.30;;;5.20;;
37453;SDS011;23315;52.078;4.756;2023-08-06T08:36:10;12.05;;;5.10;;
37453;SDS011;23315;52.078;4.756;2023-08-06T08:38:36;7.47;;;3.88;;
37453;SDS011;23315;52.078;4.756;2023-08-06T08:41:01;7.55;;;3.90;;
37453;SDS011;23315;52.078;4.756;2023-08-06T08:43:26;7.35;;;3.40;;
37453;SDS011;23315;52.078;4.756;2023-08-06T08:45:53;6.13;;;3.08;;
37453;SDS011;23315;52.078;4.756;2023-08-06T08:48:24;6.22;;;2.78;;
37453;SDS011;23315;52.078;4.756;2023-08-06T08:50:50;7.05;;;3.40;;
37453;SDS011;23315;52.078;4.756;2023-08-06T08:53:16;7.03;;;2.88;;
37453;SDS011;23315;52.078;4.756;2023-08-06T08:55:42;5.65;;;2.72;;
37453;SDS011;23315;52.078;4.756;2023-08-06T08:58:09;3.83;;;2.10;;
37453;SDS011;23315;52.078;4.756;2023-08-06T09:00:35;7.30;;;2.55;;
37453;SDS011;23315;52.078;4.756;2023-08-06T09:03:00;6.80;;;3.05;;
37453;SDS011;23315;52.078;4.756;2023-08-06T09:05:28;6.68;;;2.38;;
37453;SDS011;23315;52.078;4.756;2023-08-06T09:07:54;4.43;;;2.40;;
37453;SDS011;23315;52.078;4.756;2023-08-06T09:10:19;6.47;;;2.58;;
37453;SDS011;23315;52.078;4.756;2023-08-06T09:12:48;5.45;;;2.22;;
37453;SDS011;23315;52.078;4.756;2023-08-06T09:15:16;6.68;;;2.58;;
37453;SDS011;23315;52.078;4.756;2023-08-06T09:17:41;3.85;;;2.35;;
37453;SDS011;23315;52.078;4.756;2023-08-06T09:20:10;6.28;;;1.85;;
37453;SDS011;23315;52.078;4.756;2023-08-06T09:22:36;5.18;;;2.03;;
37453;SDS011;23315;52.078;4.756;2023-08-06T09:25:02;5.38;;;2.20;;
37453;SDS011;23315;52.078;4.756;2023-08-06T09:27:29;4.80;;;1.50;;
37453;SDS011;23315;52.078;4.756;2023-08-06T09:29:54;6.93;;;1.63;;
37453;SDS011;23315;52.078;4.756;2023-08-06T09:32:20;3.53;;;1.30;;
37453;SDS011;23315;52.078;4.756;2023-08-06T09:34:45;4.25;;;1.50;;
37453;SDS011;23315;52.078;4.756;2023-08-06T09:37:11;5.40;;;1.80;;
37453;SDS011;23315;52.078;4.756;2023-08-06T09:39:37;2.65;;;1.30;;
37453;SDS011;23315;52.078;4.756;2023-08-06T09:42:04;2.40;;;1.20;;
37453;SDS011;23315;52.078;4.756;2023-08-06T09:44:30;5.28;;;1.60;;
37453;SDS011;23315;52.078;4.756;2023-08-06T09:46:57;7.82;;;1.70;;
37453;SDS011;23315;52.078;4.756;2023-08-06T09:51:57;5.28;;;1.75;;
37453;SDS011;23315;52.078;4.756;2023-08-06T09:54:24;3.33;;;1.30;;
37453;SDS011;23315;52.078;4.756;2023-08-06T09:56:52;3.20;;;1.55;;
37453;SDS011;23315;52.078;4.756;2023-08-06T09:59:18;4.70;;;1.70;;
37453;SDS011;23315;52.078;4.756;2023-08-06T10:01:44;2.50;;;1.20;;
37453;SDS011;23315;52.078;4.756;2023-08-06T10:04:10;3.65;;;1.40;;
37453;SDS011;23315;52.078;4.756;2023-08-06T10:06:37;3.05;;;1.05;;
37453;SDS011;23315;52.078;4.756;2023-08-06T10:09:03;2.35;;;1.05;;
37453;SDS011;23315;52.078;4.756;2023-08-06T10:11:29;3.28;;;1.63;;
37453;SDS011;23315;52.078;4.756;2023-08-06T10:13:58;5.50;;;1.38;;
37453;SDS011;23315;52.078;4.756;2023-08-06T10:16:45;6.97;;;1.60;;
37453;SDS011;23315;52.078;4.756;2023-08-06T10:19:12;3.92;;;1.58;;
37453;SDS011;23315;52.078;4.756;2023-08-06T10:21:38;4.13;;;1.38;;
37453;SDS011;23315;52.078;4.756;2023-08-06T10:24:03;6.75;;;1.88;;
37453;SDS011;23315;52.078;4.756;2023-08-06T10:26:33;4.25;;;1.95;;
37453;SDS011;23315;52.078;4.756;2023-08-06T10:28:59;3.70;;;1.50;;
37453;SDS011;23315;52.078;4.756;2023-08-06T10:31:52;6.57;;;1.80;;
37453;SDS011;23315;52.078;4.756;2023-08-06T10:34:22;7.32;;;3.33;;
37453;SDS011;23315;52.078;4.756;2023-08-06T10:36:47;3.35;;;1.90;;
37453;SDS011;23315;52.078;4.756;2023-08-06T10:39:13;5.00;;;1.77;;
37453;SDS011;23315;52.078;4.756;2023-08-06T10:41:39;5.22;;;1.85;;
37453;SDS011;23315;52.078;4.756;2023-08-06T10:44:10;10.07;;;2.03;;
37453;SDS011;23315;52.078;4.756;2023-08-06T10:46:36;3.20;;;1.75;;
37453;SDS011;23315;52.078;4.756;2023-08-06T10:49:02;4.95;;;1.90;;
37453;SDS011;23315;52.078;4.756;2023-08-06T10:51:28;4.35;;;1.63;;
37453;SDS011;23315;52.078;4.756;2023-08-06T10:53:54;4.88;;;2.03;;
37453;SDS011;23315;52.078;4.756;2023-08-06T10:56:21;7.22;;;2.00;;
37453;SDS011;23315;52.078;4.756;2023-08-06T10:58:48;3.17;;;1.88;;
37453;SDS011;23315;52.078;4.756;2023-08-06T11:01:16;3.60;;;1.70;;
37453;SDS011;23315;52.078;4.756;2023-08-06T11:03:45;4.32;;;1.95;;
37453;SDS011;23315;52.078;4.756;2023-08-06T11:06:16;5.43;;;2.00;;
37453;SDS011;23315;52.078;4.756;2023-08-06T11:08:47;5.90;;;2.03;;
37453;SDS011;23315;52.078;4.756;2023-08-06T11:11:16;7.00;;;1.98;;
37453;SDS011;23315;52.078;4.756;2023-08-06T11:13:43;5.57;;;1.98;;
37453;SDS011;23315;52.078;4.756;2023-08-06T11:16:14;5.25;;;2.53;;
37453;SDS011;23315;52.078;4.756;2023-08-06T11:18:40;3.40;;;1.73;;
37453;SDS011;23315;52.078;4.756;2023-08-06T11:21:07;5.15;;;2.17;;
37453;SDS011;23315;52.078;4.756;2023-08-06T11:23:33;7.03;;;1.73;;
37453;SDS011;23315;52.078;4.756;2023-08-06T11:25:59;4.55;;;1.70;;
37453;SDS011;23315;52.078;4.756;2023-08-06T11:28:24;3.33;;;1.95;;
37453;SDS011;23315;52.078;4.756;2023-08-06T11:30:50;4.18;;;1.88;;
37453;SDS011;23315;52.078;4.756;2023-08-06T11:33:25;3.92;;;1.60;;
37453;SDS011;23315;52.078;4.756;2023-08-06T11:35:51;3.35;;;1.77;;
37453;SDS011;23315;52.078;4.756;2023-08-06T11:38:17;2.88;;;1.70;;
37453;SDS011;23315;52.078;4.756;2023-08-06T11:40:46;3.70;;;1.85;;
37453;SDS011;23315;52.078;4.756;2023-08-06T11:43:12;5.22;;;1.63;;
37453;SDS011;23315;52.078;4.756;2023-08-06T11:45:38;4.07;;;2.20;;
37453;SDS011;23315;52.078;4.756;2023-08-06T11:48:04;4.28;;;1.60;;
37453;SDS011;23315;52.078;4.756;2023-08-06T11:50:30;5.50;;;2.08;;
37453;SDS011;23315;52.078;4.756;2023-08-06T11:52:59;4.93;;;1.80;;
37453;SDS011;23315;52.078;4.756;2023-08-06T11:55:26;3.80;;;1.73;;
37453;SDS011;23315;52.078;4.756;2023-08-06T11:57:53;4.20;;;1.52;;
37453;SDS011;23315;52.078;4.756;2023-08-06T12:00:19;5.00;;;1.77;;
37453;SDS011;23315;52.078;4.756;2023-08-06T12:02:47;3.22;;;1.77;;
37453;SDS011;23315;52.078;4.756;2023-08-06T12:05:18;3.83;;;1.52;;
37453;SDS011;23315;52.078;4.756;2023-08-06T12:07:56;3.08;;;1.83;;
37453;SDS011;23315;52.078;4.756;2023-08-06T12:10:23;4.72;;;1.75;;
37453;SDS011;23315;52.078;4.756;2023-08-06T12:12:50;6.40;;;2.15;;
37453;SDS011;23315;52.078;4.756;2023-08-06T12:15:16;3.95;;;1.63;;
37453;SDS011;23315;52.078;4.756;2023-08-06T12:17:41;5.78;;;1.83;;
37453;SDS011;23315;52.078;4.756;2023-08-06T12:20:07;4.65;;;1.83;;
37453;SDS011;23315;52.078;4.756;2023-08-06T12:22:33;5.53;;;1.83;;
37453;SDS011;23315;52.078;4.756;2023-08-06T12:25:03;4.22;;;2.03;;
37453;SDS011;23315;52.078;4.756;2023-08-06T12:27:36;5.70;;;1.75;;
37453;SDS011;23315;52.078;4.756;2023-08-06T12:30:02;3.42;;;1.90;;
37453;SDS011;23315;52.078;4.756;2023-08-06T12:32:31;4.38;;;1.90;;
37453;SDS011;23315;52.078;4.756;2023-08-06T12:34:57;6.57;;;1.77;;
37453;SDS011;23315;52.078;4.756;2023-08-06T12:37:23;4.85;;;1.75;;
37453;SDS011;23315;52.078;4.756;2023-08-06T12:39:50;4.43;;;1.60;;
37453;SDS011;23315;52.078;4.756;2023-08-06T12:42:15;3.47;;;1.38;;
37453;SDS011;23315;52.078;4.756;2023-08-06T12:44:40;3.88;;;1.80;;
37453;SDS011;23315;52.078;4.756;2023-08-06T12:47:08;2.92;;;1.80;;
37453;SDS011;23315;52.078;4.756;2023-08-06T12:49:34;3.63;;;1.80;;
37453;SDS011;23315;52.078;4.756;2023-08-06T12:52:00;3.42;;;1.73;;
37453;SDS011;23315;52.078;4.756;2023-08-06T12:54:25;3.67;;;1.50;;
37453;SDS011;23315;52.078;4.756;2023-08-06T12:56:51;1.95;;;1.20;;
37453;SDS011;23315;52.078;4.756;2023-08-06T12:59:17;5.15;;;1.27;;
37453;SDS011;23315;52.078;4.756;2023-08-06T13:01:43;6.90;;;1.60;;
37453;SDS011;23315;52.078;4.756;2023-08-06T13:04:09;7.03;;;1.35;;
37453;SDS011;23315;52.078;4.756;2023-08-06T13:06:34;2.83;;;1.10;;
37453;SDS011;23315;52.078;4.756;2023-08-06T13:09:10;2.45;;;1.17;;
37453;SDS011;23315;52.078;4.756;2023-08-06T13:11:36;4.50;;;1.40;;
37453;SDS011;23315;52.078;4.756;2023-08-06T13:14:06;6.32;;;1.33;;
37453;SDS011;23315;52.078;4.756;2023-08-06T13:16:34;1.75;;;1.05;;
37453;SDS011;23315;52.078;4.756;2023-08-06T13:19:00;2.88;;;0.90;;
37453;SDS011;23315;52.078;4.756;2023-08-06T13:21:31;4.50;;;1.20;;
37453;SDS011;23315;52.078;4.756;2023-08-06T13:24:17;8.20;;;2.00;;
37453;SDS011;23315;52.078;4.756;2023-08-06T13:26:42;8.63;;;1.80;;
37453;SDS011;23315;52.078;4.756;2023-08-06T13:29:08;10.80;;;1.85;;
37453;SDS011;23315;52.078;4.756;2023-08-06T13:31:33;8.82;;;1.75;;
37453;SDS011;23315;52.078;4.756;2023-08-06T13:33:59;9.07;;;1.70;;
37453;SDS011;23315;52.078;4.756;2023-08-06T13:36:25;7.07;;;1.95;;
37453;SDS011;23315;52.078;4.756;2023-08-06T13:38:51;7.82;;;2.05;;
37453;SDS011;23315;52.078;4.756;2023-08-06T13:41:16;6.65;;;1.90;;
37453;SDS011;23315;52.078;4.756;2023-08-06T13:43:42;9.00;;;1.80;;
37453;SDS011;23315;52.078;4.756;2023-08-06T13:46:09;8.15;;;1.35;;
37453;SDS011;23315;52.078;4.756;2023-08-06T13:48:34;11.68;;;1.90;;
37453;SDS011;23315;52.078;4.756;2023-08-06T13:51:00;6.15;;;1.25;;
37453;SDS011;23315;52.078;4.756;2023-08-06T13:53:25;9.13;;;1.23;;
37453;SDS011;23315;52.078;4.756;2023-08-06T13:55:54;13.75;;;2.10;;
37453;SDS011;23315;52.078;4.756;2023-08-06T13:58:20;7.53;;;1.25;;
37453;SDS011;23315;52.078;4.756;2023-08-06T14:00:46;5.03;;;1.10;;
37453;SDS011;23315;52.078;4.756;2023-08-06T14:03:11;11.27;;;1.95;;
37453;SDS011;23315;52.078;4.756;2023-08-06T14:05:37;5.13;;;1.63;;
37453;SDS011;23315;52.078;4.756;2023-08-06T14:08:02;11.73;;;1.40;;
37453;SDS011;23315;52.078;4.756;2023-08-06T14:10:28;7.40;;;1.25;;
37453;SDS011;23315;52.078;4.756;2023-08-06T14:12:53;5.78;;;1.50;;
37453;SDS011;23315;52.078;4.756;2023-08-06T14:15:18;7.78;;;1.73;;
37453;SDS011;23315;52.078;4.756;2023-08-06T14:17:44;8.48;;;1.70;;
37453;SDS011;23315;52.078;4.756;2023-08-06T14:20:09;12.15;;;1.60;;
37453;SDS011;23315;52.078;4.756;2023-08-06T14:22:36;7.97;;;1.05;;
37453;SDS011;23315;52.078;4.756;2023-08-06T14:25:02;7.22;;;1.50;;
37453;SDS011;23315;52.078;4.756;2023-08-06T14:27:28;8.02;;;1.20;;
37453;SDS011;23315;52.078;4.756;2023-08-06T14:29:53;12.65;;;1.70;;
37453;SDS011;23315;52.078;4.756;2023-08-06T14:32:19;12.77;;;1.40;;
37453;SDS011;23315;52.078;4.756;2023-08-06T14:34:44;9.30;;;1.55;;
37453;SDS011;23315;52.078;4.756;2023-08-06T14:37:10;8.57;;;1.35;;
37453;SDS011;23315;52.078;4.756;2023-08-06T14:39:36;8.25;;;1.58;;
37453;SDS011;23315;52.078;4.756;2023-08-06T14:42:01;7.20;;;1.33;;